.
WxDataArchive / Data Records for 2013-01-24
2013-01-23 January 2013 2013-01-25

Data Records for Thursday, 24 January 2013

Time	Temp	Chill	HIndex	Humid	Dewpt	 Wind 	HiWind	WindDir	Rain 	Barom 
-----	----	-----	------	-----	-----	------	------	-------	-----	----- 
00:00	17.8	17.8	17.8	81	13.0	0	4	315	0.00	30.147 
00:05	17.8	17.8	17.8	81	13.0	0	2	315	0.00	30.147 
00:10	18.0	18.0	18.0	82	13.5	1	4	315	0.00	30.147 
00:15	18.0	18.0	18.0	82	13.5	2	14	338	0.00	30.162 
00:20	17.5	17.5	17.5	81	12.7	3	10	338	0.00	30.162 
00:25	17.3	17.3	17.3	80	12.2	2	6	338	0.00	30.162 
00:30	17.0	17.0	17.0	77	11.1	3	10	315	0.00	30.178 
00:35	16.9	16.9	16.9	73	9.8	3	7	338	0.00	30.178 
00:40	16.7	16.7	16.7	71	9.0	3	10	0	0.00	30.178 
00:45	16.5	16.5	16.5	69	8.1	3	7	338	0.00	30.189 
00:50	16.4	16.4	16.4	68	7.7	2	5	338	0.00	30.189 
00:55	16.2	16.2	16.2	66	6.9	2	10	338	0.00	30.189 
01:00	16.1	16.1	16.1	65	6.4	3	9	338	0.00	30.201 
01:05	15.9	15.9	15.9	65	6.2	2	5	338	0.00	30.201 
01:10	15.6	15.6	15.6	65	6.0	1	5	0	0.00	30.201 
01:15	15.6	15.6	15.6	65	6.0	2	4	315	0.00	30.218 
01:20	15.2	15.2	15.2	65	5.6	2	5	338	0.00	30.218 
01:25	15.1	15.1	15.1	65	5.5	1	3	338	0.00	30.218 
01:30	14.9	14.9	14.9	65	5.3	1	4	338	0.00	30.230 
01:35	14.8	14.8	14.8	65	5.2	1	4	338	0.00	30.230 
01:40	14.6	14.6	14.6	64	4.7	2	5	338	0.00	30.230 
01:45	14.6	14.6	14.6	64	4.7	2	5	338	0.00	30.243 
01:50	14.4	14.4	14.4	64	4.5	1	5	0	0.00	30.243 
01:55	14.3	14.3	14.3	63	4.0	1	3	315	0.00	30.243 
02:00	14.0	14.0	14.0	64	4.1	1	5	315	0.00	30.258 
02:05	14.0	14.0	14.0	64	4.1	0	3	315	0.00	30.258 
02:10	13.8	13.8	13.8	65	4.2	1	3	338	0.00	30.258 
02:15	13.6	13.6	13.6	65	4.1	1	3	315	0.00	30.275 
02:20	13.3	13.3	13.3	66	4.1	0	2	315	0.00	30.275 
02:25	13.1	13.1	13.1	66	3.9	0	2	315	0.00	30.275 
02:30	12.9	12.9	12.9	67	4.0	0	3	315	0.00	30.291 
02:35	12.8	12.8	12.8	67	3.9	0	3	270	0.00	30.291 
02:40	12.4	12.4	12.4	68	3.9	0	2	270	0.00	30.291 
02:45	12.3	12.3	12.3	68	3.8	0	0	---	0.00	30.301 
02:50	11.9	11.9	11.9	69	3.7	0	2	270	0.00	30.301 
02:55	11.9	11.9	11.9	69	3.7	0	3	270	0.00	30.301 
03:00	11.9	11.9	11.9	70	4.0	1	3	270	0.00	30.316 
03:05	11.9	11.9	11.9	70	4.0	1	3	270	0.00	30.316 
03:10	11.9	11.9	11.9	70	4.0	1	3	315	0.00	30.316 
03:15	11.9	11.9	11.9	70	4.0	1	5	270	0.00	30.327 
03:20	11.9	11.9	11.9	69	3.7	1	3	270	0.00	30.327 
03:25	11.7	11.7	11.7	69	3.5	0	2	270	0.00	30.327 
03:30	11.7	11.7	11.7	69	3.5	1	3	270	0.00	30.339 
03:35	11.6	11.6	11.6	69	3.4	1	4	270	0.00	30.339 
03:40	11.6	11.6	11.6	69	3.4	0	2	270	0.00	30.339 
03:45	11.4	11.4	11.4	69	3.2	0	2	270	0.00	30.354 
03:50	11.2	11.2	11.2	68	2.7	0	2	270	0.00	30.354 
03:55	11.2	11.2	11.2	68	2.7	0	2	270	0.00	30.354 
04:00	11.1	11.1	11.1	68	2.6	0	2	270	0.00	30.359 
04:05	10.9	10.9	10.9	68	2.4	0	1	270	0.00	30.359 
04:10	10.7	10.7	10.7	69	2.6	0	4	270	0.00	30.359 
04:15	10.7	10.7	10.7	69	2.6	0	2	270	0.00	30.370 
04:20	10.5	10.5	10.5	69	2.4	0	2	270	0.00	30.370 
04:25	10.4	10.4	10.4	69	2.3	0	2	270	0.00	30.370 
04:30	10.2	10.2	10.2	69	2.1	0	4	292	0.00	30.380 
04:35	10.2	10.2	10.2	69	2.1	0	1	292	0.00	30.380 
04:40	10.0	10.0	10.0	69	1.9	0	1	292	0.00	30.380 
04:45	9.9	9.9	9.9	69	1.8	0	1	292	0.00	30.387 
04:50	9.7	9.7	9.7	69	1.6	0	1	292	0.00	30.387 
04:55	9.5	9.5	9.5	69	1.4	0	3	292	0.00	30.387 
05:00	9.5	9.5	9.5	69	1.4	0	1	292	0.00	30.396 
05:05	9.3	9.3	9.3	70	1.5	0	1	292	0.00	30.396 
05:10	9.2	9.2	9.2	70	1.4	0	2	292	0.00	30.396 
05:15	9.0	9.0	9.0	70	1.2	0	1	292	0.00	30.406 
05:20	8.8	8.8	8.8	70	1.0	0	1	292	0.00	30.406 
05:25	8.6	8.6	8.6	70	0.9	0	0	---	0.00	30.406 
05:30	8.6	8.6	8.6	70	0.9	0	1	292	0.00	30.411 
05:35	8.4	8.4	8.4	71	1.0	0	1	292	0.00	30.411 
05:40	8.3	8.3	8.3	71	0.9	0	1	292	0.00	30.411 
05:45	8.3	8.3	8.3	71	0.9	0	1	292	0.00	30.427 
05:50	8.1	8.1	8.1	71	0.7	0	0	---	0.00	30.427 
05:55	7.9	7.9	7.9	72	0.8	0	0	---	0.00	30.427 
06:00	7.7	7.7	7.7	72	0.6	0	0	---	0.00	30.432 
06:05	7.6	7.6	7.6	72	0.5	0	0	---	0.00	30.432 
06:10	7.4	7.4	7.4	72	0.3	0	0	---	0.00	30.432 
06:15	7.4	7.4	7.4	73	0.6	0	0	---	0.00	30.444 
06:20	7.2	7.2	7.2	73	0.4	0	0	---	0.00	30.444 
06:25	7.0	7.0	7.0	73	0.2	0	0	---	0.00	30.444 
06:30	6.9	6.9	6.9	73	0.1	0	0	---	0.00	30.457 
06:35	6.9	6.9	6.9	73	0.1	0	0	---	0.00	30.457 
06:40	6.9	6.9	6.9	74	0.4	0	0	---	0.00	30.457 
06:45	6.9	6.9	6.9	74	0.4	0	1	292	0.00	30.471 
06:50	6.9	6.9	6.9	74	0.4	0	0	---	0.00	30.471 
06:55	6.7	6.7	6.7	74	0.2	0	0	---	0.00	30.471 
07:00	6.5	6.5	6.5	75	0.3	0	0	---	0.00	30.484 
07:05	6.5	6.5	6.5	75	0.3	0	0	---	0.00	30.484 
07:10	6.5	6.5	6.5	75	0.3	0	0	---	0.00	30.484 
07:15	6.3	6.3	6.3	75	0.1	0	0	---	0.00	30.501 
07:20	6.3	6.3	6.3	75	0.1	0	0	---	0.00	30.501 
07:25	6.1	6.1	6.1	76	0.2	0	0	---	0.00	30.501 
07:30	6.1	6.1	6.1	76	0.2	0	0	---	0.00	30.510 
07:35	6.0	6.0	6.0	76	0.1	0	0	---	0.00	30.510 
07:40	6.0	6.0	6.0	76	0.1	0	1	292	0.00	30.510 
07:45	6.0	6.0	6.0	76	0.1	0	0	---	0.00	30.524 
07:50	6.1	6.1	6.1	77	0.5	0	0	---	0.00	30.524 
07:55	6.1	6.1	6.1	77	0.5	0	0	---	0.00	30.524 
08:00	6.3	6.3	6.3	77	0.7	0	0	---	0.00	30.537 
08:05	6.3	6.3	6.3	77	0.7	0	0	---	0.00	30.537 
08:10	6.3	6.3	6.3	77	0.7	0	0	---	0.00	30.537 
08:15	6.3	6.3	6.3	77	0.7	0	1	292	0.00	30.536 
08:20	6.5	6.5	6.5	77	0.9	0	1	292	0.00	30.536 
08:25	6.7	6.7	6.7	77	1.0	0	0	---	0.00	30.536 
08:30	6.9	6.9	6.9	77	1.2	0	1	292	0.00	30.547 
08:35	7.2	7.2	7.2	77	1.5	0	1	292	0.00	30.547 
08:40	7.4	7.4	7.4	77	1.7	0	1	292	0.00	30.547 
08:45	7.6	7.6	7.6	77	1.9	0	1	292	0.00	30.541 
08:50	7.7	7.7	7.7	77	2.0	0	2	292	0.00	30.541 
08:55	7.9	7.9	7.9	77	2.2	0	2	292	0.00	30.541 
09:00	8.1	8.1	8.1	77	2.4	0	2	292	0.00	30.555 
09:05	8.3	8.3	8.3	77	2.6	0	3	292	0.00	30.555 
09:10	8.4	8.4	8.4	76	2.4	0	3	292	0.00	30.555 
09:15	8.8	8.8	8.8	76	2.8	0	2	292	0.00	30.566 
09:20	9.0	9.0	9.0	76	3.0	0	2	292	0.00	30.566 
09:25	9.0	9.0	9.0	76	3.0	0	2	292	0.00	30.566 
09:30	9.2	9.2	9.2	75	2.9	0	2	292	0.00	30.570 
09:35	9.3	9.3	9.3	75	3.0	0	2	292	0.00	30.570 
09:40	9.7	9.7	9.7	75	3.4	0	2	292	0.00	30.570 
09:45	10.0	10.0	10.0	74	3.4	0	2	292	0.00	30.581 
09:50	10.4	10.4	10.4	74	3.8	0	2	292	0.00	30.581 
09:55	10.5	10.5	10.5	73	3.6	0	2	292	0.00	30.581 
10:00	10.9	10.9	10.9	73	4.0	0	2	292	0.00	30.596 
10:05	11.2	11.2	11.2	73	4.3	0	2	292	0.00	30.596 
10:10	11.7	11.7	11.7	72	4.4	0	2	292	0.00	30.596 
10:15	11.9	11.9	11.9	71	4.3	0	3	292	0.00	30.606 
10:20	12.3	12.3	12.3	70	4.4	1	3	315	0.00	30.606 
10:25	12.6	12.6	12.6	69	4.4	0	2	315	0.00	30.606 
10:30	13.1	13.1	13.1	69	4.9	0	1	315	0.00	30.616 
10:35	13.5	13.5	13.5	68	4.9	0	2	0	0.00	30.616 
10:40	13.6	13.6	13.6	68	5.0	0	2	0	0.00	30.616 
10:45	13.8	13.8	13.8	67	4.9	0	1	0	0.00	30.626 
10:50	14.1	14.1	14.1	67	5.2	0	2	0	0.00	30.626 
10:55	14.4	14.4	14.4	67	5.5	1	5	0	0.00	30.626 
11:00	14.8	14.8	14.8	67	5.9	0	2	68	0.00	30.639 
11:05	15.1	15.1	15.1	66	5.8	1	4	112	0.00	30.639 
11:10	15.2	15.2	15.2	66	5.9	0	3	90	0.00	30.639 
11:15	15.4	15.4	15.4	66	6.1	0	3	90	0.00	30.638 
11:20	15.7	15.7	15.7	65	6.1	0	3	68	0.00	30.638 
11:25	16.1	16.1	16.1	65	6.4	1	5	90	0.00	30.638 
11:30	16.2	16.2	16.2	64	6.2	1	3	45	0.00	30.638 
11:35	16.5	16.5	16.5	65	6.8	0	3	90	0.00	30.638 
11:40	16.7	16.7	16.7	63	6.3	1	4	0	0.00	30.638 
11:45	16.9	16.9	16.9	62	6.2	2	7	112	0.00	30.635 
11:50	17.0	17.0	17.0	62	6.3	2	6	112	0.00	30.635 
11:55	17.3	17.3	17.3	62	6.5	1	3	45	0.00	30.635 
12:00	17.5	17.5	17.5	61	6.4	1	5	68	0.00	30.631 
12:05	17.7	17.7	17.7	60	6.2	1	5	90	0.00	30.631 
12:10	17.8	17.8	17.8	57	5.2	2	6	90	0.00	30.631 
12:15	17.8	17.8	17.8	59	5.9	2	5	112	0.00	30.629 
12:20	17.8	17.8	17.8	58	5.6	1	7	112	0.00	30.629 
12:25	17.8	17.8	17.8	57	5.2	2	7	90	0.00	30.629 
12:30	18.1	18.1	18.1	57	5.5	1	4	90	0.00	30.624 
12:35	18.3	18.3	18.3	55	4.9	1	5	68	0.00	30.624 
12:40	18.4	18.4	18.4	56	5.4	1	4	90	0.00	30.624 
12:45	18.4	18.4	18.4	54	4.6	3	7	112	0.00	30.617 
12:50	18.4	18.4	18.4	54	4.6	2	9	112	0.00	30.617 
12:55	18.6	18.6	18.6	54	4.8	1	3	90	0.00	30.617 
13:00	18.9	18.9	18.9	54	5.0	1	5	45	0.00	30.611 
13:05	19.1	19.1	19.1	53	4.8	1	5	90	0.00	30.611 
13:10	19.1	19.1	19.1	51	4.0	0	2	90	0.00	30.611 
13:15	19.1	19.1	19.1	50	3.6	1	4	90	0.00	30.607 
13:20	19.4	19.4	19.4	53	5.1	1	5	90	0.00	30.607 
13:25	19.5	19.5	19.5	51	4.4	1	5	90	0.00	30.607 
13:30	19.5	19.5	19.5	46	2.1	1	4	90	0.00	30.603 
13:35	19.5	19.5	19.5	47	2.6	1	5	112	0.00	30.603 
13:40	19.7	19.7	19.7	50	4.1	1	5	90	0.00	30.603 
13:45	19.9	19.9	19.9	48	3.4	0	2	22	0.00	30.596 
13:50	19.9	19.9	19.9	47	3.0	1	4	68	0.00	30.596 
13:55	19.9	19.9	19.9	47	3.0	0	1	90	0.00	30.596 
14:00	20.0	20.0	20.0	49	3.9	0	2	45	0.00	30.594 
14:05	20.0	20.0	20.0	47	3.0	0	3	68	0.00	30.594 
14:10	20.2	20.2	20.2	47	3.2	0	2	68	0.00	30.594 
14:15	20.2	20.2	20.2	47	3.2	0	2	68	0.00	30.594 
14:20	20.2	20.2	20.2	45	2.3	1	5	112	0.00	30.594 
14:25	19.9	19.9	19.9	46	2.5	1	2	112	0.00	30.594 
14:30	20.0	20.0	20.0	46	2.6	0	1	112	0.00	30.597 
14:35	20.0	20.0	20.0	46	2.6	1	5	90	0.00	30.597 
14:40	20.2	20.2	20.2	47	3.2	0	1	90	0.00	30.597 
14:45	20.3	20.3	20.3	45	2.4	0	2	90	0.00	30.593 
14:50	20.3	20.3	20.3	45	2.4	1	4	90	0.00	30.593 
14:55	20.3	20.3	20.3	45	2.4	1	3	90	0.00	30.593 
15:00	20.5	20.5	20.5	45	2.6	0	1	90	0.00	30.588 
15:05	20.6	20.6	20.6	46	3.1	0	2	90	0.00	30.588 
15:10	20.8	20.8	20.8	46	3.3	1	2	90	0.00	30.588 
15:15	20.6	20.6	20.6	47	3.6	1	4	90	0.00	30.589 
15:20	20.6	20.6	20.6	46	3.1	0	1	90	0.00	30.589 
15:25	20.6	20.6	20.6	46	3.1	1	3	90	0.00	30.589 
15:30	20.5	20.5	20.5	46	3.0	1	2	90	0.00	30.591 
15:35	20.5	20.5	20.5	46	3.0	0	1	90	0.00	30.591 
15:40	20.5	20.5	20.5	44	2.1	0	1	90	0.00	30.591 
15:45	20.5	20.5	20.5	45	2.6	0	1	90	0.00	30.587 
15:50	20.5	20.5	20.5	45	2.6	0	1	90	0.00	30.587 
15:55	20.5	20.5	20.5	45	2.6	0	1	90	0.00	30.587 
16:00	20.5	20.5	20.5	45	2.6	0	3	90	0.00	30.579 
16:05	20.5	20.5	20.5	45	2.6	0	1	90	0.00	30.579 
16:10	20.5	20.5	20.5	45	2.6	0	1	90	0.00	30.579 
16:15	20.5	20.5	20.5	46	3.0	0	2	90	0.00	30.587 
16:20	20.5	20.5	20.5	45	2.6	0	1	90	0.00	30.587 
16:25	20.5	20.5	20.5	45	2.6	0	1	90	0.00	30.587 
16:30	20.3	20.3	20.3	45	2.4	0	1	90	0.00	30.590 
16:35	20.3	20.3	20.3	45	2.4	0	1	90	0.00	30.590 
16:40	20.2	20.2	20.2	46	2.8	0	2	90	0.00	30.590 
16:45	20.2	20.2	20.2	45	2.3	0	1	90	0.00	30.589 
16:50	20.0	20.0	20.0	45	2.1	0	1	90	0.00	30.589 
16:55	20.0	20.0	20.0	45	2.1	0	0	---	0.00	30.589 
17:00	19.9	19.9	19.9	44	1.5	0	0	---	0.00	30.581 
17:05	19.9	19.9	19.9	45	2.0	0	0	---	0.00	30.581 
17:10	19.7	19.7	19.7	45	1.8	0	0	---	0.00	30.581 
17:15	19.5	19.5	19.5	46	2.1	0	0	---	0.00	30.592 
17:20	19.4	19.4	19.4	45	1.6	0	1	90	0.00	30.592 
17:25	19.2	19.2	19.2	45	1.4	0	0	---	0.00	30.592 
17:30	19.1	19.1	19.1	46	1.8	0	0	---	0.00	30.591 
17:35	18.9	18.9	18.9	47	2.0	0	2	90	0.00	30.591 
17:40	18.8	18.8	18.8	47	1.9	0	1	90	0.00	30.591 
17:45	18.6	18.6	18.6	48	2.2	0	1	90	0.00	30.594 
17:50	18.4	18.4	18.4	48	2.0	0	1	90	0.00	30.594 
17:55	18.3	18.3	18.3	49	2.4	0	0	---	0.00	30.594 
18:00	18.1	18.1	18.1	49	2.2	0	0	---	0.00	30.595 
18:05	18.0	18.0	18.0	49	2.1	0	1	90	0.00	30.595 
18:10	17.8	17.8	17.8	50	2.3	0	1	90	0.00	30.595 
18:15	17.8	17.8	17.8	50	2.3	0	1	90	0.00	30.591 
18:20	17.7	17.7	17.7	50	2.3	0	1	90	0.00	30.591 
18:25	17.8	17.8	17.8	50	2.3	0	1	90	0.00	30.591 
18:30	17.8	17.8	17.8	50	2.3	0	1	90	0.00	30.594 
18:35	17.8	17.8	17.8	51	2.8	0	1	90	0.00	30.594 
18:40	18.0	18.0	18.0	51	3.0	0	1	90	0.00	30.594 
18:45	18.0	18.0	18.0	51	3.0	0	2	90	0.00	30.593 
18:50	18.0	18.0	18.0	51	3.0	0	1	90	0.00	30.593 
18:55	18.0	18.0	18.0	50	2.5	0	2	90	0.00	30.593 
19:00	18.1	18.1	18.1	50	2.6	0	2	90	0.00	30.585 
19:05	18.1	18.1	18.1	50	2.6	1	2	90	0.00	30.585 
19:10	18.1	18.1	18.1	50	2.6	1	2	90	0.00	30.585 
19:15	18.1	18.1	18.1	50	2.6	0	2	90	0.00	30.579 
19:20	18.1	18.1	18.1	50	2.6	1	2	90	0.00	30.579 
19:25	18.1	18.1	18.1	50	2.6	1	2	90	0.00	30.579 
19:30	18.1	18.1	18.1	51	3.1	0	2	90	0.00	30.583 
19:35	18.1	18.1	18.1	51	3.1	0	2	90	0.00	30.583 
19:40	18.3	18.3	18.3	51	3.2	1	2	90	0.00	30.583 
19:45	18.3	18.3	18.3	51	3.2	0	2	90	0.00	30.582 
19:50	18.1	18.1	18.1	53	3.9	0	1	90	0.00	30.582 
19:55	18.0	18.0	18.0	54	4.2	1	3	90	0.00	30.582 
20:00	17.8	17.8	17.8	54	4.0	1	4	90	0.00	30.569 
20:05	17.7	17.7	17.7	54	3.9	1	3	90	0.00	30.569 
20:10	17.5	17.5	17.5	54	3.7	0	1	90	0.00	30.569 
20:15	17.5	17.5	17.5	54	3.7	1	4	112	0.00	30.562 
20:20	17.3	17.3	17.3	54	3.5	1	4	112	0.00	30.562 
20:25	17.3	17.3	17.3	53	3.1	1	3	112	0.00	30.562 
20:30	17.3	17.3	17.3	53	3.1	1	5	112	0.00	30.568 
20:35	17.3	17.3	17.3	54	3.5	1	3	112	0.00	30.568 
20:40	17.3	17.3	17.3	54	3.5	1	4	112	0.00	30.568 
20:45	17.3	17.3	17.3	54	3.5	1	3	112	0.00	30.560 
20:50	17.3	17.3	17.3	54	3.5	1	4	112	0.00	30.560 
20:55	17.2	17.2	17.2	54	3.4	2	5	90	0.00	30.560 
21:00	17.2	17.2	17.2	56	4.2	1	4	90	0.00	30.545 
21:05	17.3	17.3	17.3	56	4.3	2	5	90	0.00	30.545 
21:10	17.3	17.3	17.3	56	4.3	1	4	90	0.00	30.545 
21:15	17.3	17.3	17.3	54	3.5	3	7	90	0.00	30.539 
21:20	17.3	17.3	17.3	54	3.5	3	6	90	0.00	30.539 
21:25	17.3	17.3	17.3	55	3.9	2	6	90	0.00	30.539 
21:30	17.3	17.3	17.3	55	3.9	2	6	90	0.00	30.538 
21:35	17.5	17.5	17.5	50	2.1	2	6	90	0.00	30.538 
21:40	17.5	17.5	17.5	54	3.7	2	5	68	0.00	30.538 
21:45	17.5	17.5	17.5	55	4.1	2	4	68	0.00	30.545 
21:50	17.5	17.5	17.5	56	4.5	2	4	90	0.00	30.545 
21:55	17.5	17.5	17.5	56	4.5	1	4	90	0.00	30.545 
22:00	17.3	17.3	17.3	57	4.7	1	5	90	0.00	30.533 
22:05	17.3	17.3	17.3	57	4.7	2	4	90	0.00	30.533 
22:10	17.3	17.3	17.3	57	4.7	2	5	90	0.00	30.533 
22:15	17.3	17.3	17.3	57	4.7	2	7	90	0.00	30.526 
22:20	17.3	17.3	17.3	57	4.7	3	6	90	0.00	30.526 
22:25	17.3	17.3	17.3	58	5.1	2	7	90	0.00	30.526 
22:30	17.3	17.3	17.3	58	5.1	2	5	90	0.00	30.518 
22:35	17.3	17.3	17.3	57	4.7	3	7	90	0.00	30.518 
22:40	17.3	17.3	17.3	58	5.1	2	5	90	0.00	30.518 
22:45	17.3	17.3	17.3	58	5.1	2	5	90	0.00	30.511 
22:50	17.3	17.3	17.3	58	5.1	2	5	90	0.00	30.511 
22:55	17.3	17.3	17.3	57	4.7	2	5	90	0.00	30.511 
23:00	17.3	17.3	17.3	57	4.7	3	6	90	0.00	30.509 
23:05	17.3	17.3	17.3	58	5.1	2	6	90	0.00	30.509 
23:10	17.3	17.3	17.3	58	5.1	3	7	90	0.00	30.509 
23:15	17.5	17.5	17.5	58	5.3	1	4	90	0.00	30.496 
23:20	17.5	17.5	17.5	59	5.6	1	5	90	0.00	30.496 
23:25	17.5	17.5	17.5	59	5.6	1	4	90	0.00	30.496 
23:30	17.5	17.5	17.5	59	5.6	1	4	90	0.00	30.506 
23:35	17.5	17.5	17.5	58	5.3	2	7	90	0.00	30.506 
23:40	17.5	17.5	17.5	59	5.6	1	4	90	0.00	30.506 
23:45	17.7	17.7	17.7	59	5.8	1	4	90	0.00	30.509 
23:50	17.7	17.7	17.7	60	6.2	1	3	90	0.00	30.509 
23:55	17.7	17.7	17.7	60	6.2	1	3	90	0.00	30.509 

CoCoRaHS
IN-AL-39
A2 Web Hosting
Creative Commons License
GoDaddy
search engine by freefind advanced

loaded 2018-11-21 00:53:40 • last modified 2010-11-18 10:43:29
Privacy PolicyDisclaimer
• wx.awcolley.com is powered by PmWiki v.2002016 •
• all content (unless otherwise noted) © 2018 A W Colley